createdAt,value
2023-03-05T00:02:06.935Z,3.95
2023-03-05T00:04:33.663Z,5.00
2023-03-05T00:07:00.424Z,5.20
2023-03-05T00:09:26.965Z,6.03
2023-03-05T00:11:53.376Z,4.93
2023-03-05T00:14:20.309Z,6.00
2023-03-05T00:16:47.001Z,5.25
2023-03-05T00:19:13.566Z,5.07
2023-03-05T00:21:41.767Z,5.57
2023-03-05T00:24:15.407Z,5.68
2023-03-05T00:26:42.035Z,6.43
2023-03-05T00:29:09.788Z,4.93
2023-03-05T00:31:37.213Z,5.78
2023-03-05T00:34:15.274Z,5.25
2023-03-05T00:36:44.158Z,5.28
2023-03-05T00:39:11.745Z,5.53
2023-03-05T00:41:38.296Z,5.00
2023-03-05T00:44:05.176Z,5.60
2023-03-05T00:46:32.089Z,5.40
2023-03-05T00:48:58.590Z,5.13
2023-03-05T00:51:26.517Z,5.47
2023-03-05T00:53:53.439Z,5.53
2023-03-05T00:56:20.117Z,4.97
2023-03-05T00:58:46.660Z,4.85
2023-03-05T01:01:14.484Z,4.85
2023-03-05T01:03:41.572Z,5.18
2023-03-05T01:06:11.654Z,5.13
2023-03-05T01:08:38.958Z,5.00
2023-03-05T01:11:07.383Z,5.75
2023-03-05T01:13:33.863Z,5.40
2023-03-05T01:16:01.682Z,5.10
2023-03-05T01:18:28.267Z,4.93
2023-03-05T01:20:54.878Z,4.97
2023-03-05T01:23:21.818Z,5.85
2023-03-05T01:26:00.052Z,6.22
2023-03-05T01:28:26.804Z,4.90
2023-03-05T01:30:53.667Z,5.28
2023-03-05T01:33:20.165Z,5.07
2023-03-05T01:35:50.199Z,5.13
2023-03-05T01:38:17.581Z,4.57
2023-03-05T01:40:44.602Z,5.22
2023-03-05T01:43:11.243Z,5.07
2023-03-05T01:45:38.844Z,4.20
2023-03-05T01:48:05.506Z,3.78
2023-03-05T01:50:33.691Z,4.38
2023-03-05T01:53:06.459Z,4.82
2023-03-05T01:55:37.139Z,4.40
2023-03-05T01:58:08.230Z,4.15
2023-03-05T02:00:39.525Z,3.92
2023-03-05T02:03:09.402Z,3.67
2023-03-05T02:05:38.140Z,4.28
2023-03-05T02:08:08.576Z,3.88
2023-03-05T02:10:39.344Z,4.00
2023-03-05T02:13:09.775Z,3.58
2023-03-05T02:15:38.054Z,4.22
2023-03-05T02:18:05.994Z,5.15
2023-03-05T02:20:56.252Z,4.35
2023-03-05T02:23:25.489Z,4.25
2023-03-05T02:25:52.952Z,5.53
2023-03-05T02:28:28.479Z,5.60
2023-03-05T02:30:56.802Z,5.35
2023-03-05T02:33:23.377Z,6.28
2023-03-05T02:35:50.280Z,6.45
2023-03-05T02:38:19.175Z,6.63
2023-03-05T02:40:46.202Z,6.63
2023-03-05T02:43:14.542Z,7.85
2023-03-05T02:45:40.958Z,7.28
2023-03-05T02:48:07.797Z,6.57
2023-03-05T02:50:35.062Z,6.35
2023-03-05T02:53:01.940Z,6.80
2023-03-05T02:55:28.549Z,6.85
2023-03-05T02:57:55.371Z,6.50
2023-03-05T03:00:22.233Z,6.65
2023-03-05T03:02:48.738Z,6.55
2023-03-05T03:05:15.504Z,6.07
2023-03-05T03:07:42.414Z,6.75
2023-03-05T03:10:09.563Z,5.65
2023-03-05T03:12:43.964Z,5.57
2023-03-05T03:15:12.394Z,5.22
2023-03-05T03:17:39.653Z,4.82
2023-03-05T03:20:11.666Z,4.18
2023-03-05T03:22:38.303Z,4.90
2023-03-05T03:25:05.502Z,4.38
2023-03-05T03:27:32.079Z,4.75
2023-03-05T03:30:04.981Z,4.93
2023-03-05T03:32:32.564Z,3.65
2023-03-05T03:34:59.580Z,5.78
2023-03-05T03:37:26.512Z,5.05
2023-03-05T03:39:53.375Z,5.25
2023-03-05T03:42:21.709Z,4.53
2023-03-05T03:44:48.653Z,4.50
2023-03-05T03:47:15.356Z,4.95
2023-03-05T03:49:42.564Z,4.88
2023-03-05T03:52:09.051Z,4.55
2023-03-05T03:54:36.119Z,5.60
2023-03-05T03:57:05.544Z,4.78
2023-03-05T03:59:32.371Z,5.25
2023-03-05T04:01:59.141Z,4.55
2023-03-05T04:04:26.908Z,4.50
2023-03-05T04:06:53.375Z,4.35
2023-03-05T04:09:20.128Z,3.25
2023-03-05T04:11:46.627Z,4.10
2023-03-05T04:14:13.023Z,4.55
2023-03-05T04:16:39.495Z,4.00
2023-03-05T04:19:05.946Z,3.92
2023-03-05T04:21:33.587Z,3.63
2023-03-05T04:23:59.987Z,3.92
2023-03-05T04:26:26.577Z,3.85
2023-03-05T04:28:52.994Z,3.80
2023-03-05T04:31:20.978Z,3.50
2023-03-05T04:33:47.503Z,3.70
2023-03-05T04:36:14.293Z,3.03
2023-03-05T04:38:40.976Z,3.10
2023-03-05T04:41:07.419Z,2.90
2023-03-05T04:43:33.876Z,3.85
2023-03-05T04:46:00.605Z,4.05
2023-03-05T04:48:27.114Z,3.75
2023-03-05T04:50:53.647Z,3.88
2023-03-05T04:53:20.053Z,3.08
2023-03-05T04:55:46.627Z,4.07
2023-03-05T04:58:13.061Z,3.75
2023-03-05T05:00:39.537Z,4.07
2023-03-05T05:03:06.461Z,3.53
2023-03-05T05:05:33.164Z,3.97
2023-03-05T05:07:59.607Z,3.08
2023-03-05T05:10:27.003Z,3.92
2023-03-05T05:12:53.745Z,3.58
2023-03-05T05:15:21.444Z,3.53
2023-03-05T05:17:48.140Z,3.30
2023-03-05T05:20:16.653Z,3.40
2023-03-05T05:22:44.174Z,3.80
2023-03-05T05:25:11.291Z,3.50
2023-03-05T05:27:40.004Z,3.22
2023-03-05T05:30:27.072Z,3.15
2023-03-05T05:32:53.474Z,3.20
2023-03-05T05:35:21.228Z,3.42
2023-03-05T05:37:47.767Z,3.33
2023-03-05T05:40:14.562Z,2.83
2023-03-05T05:42:41.629Z,3.00
2023-03-05T05:45:09.010Z,3.40
2023-03-05T05:47:41.695Z,3.00
2023-03-05T05:50:09.006Z,3.20
2023-03-05T05:52:35.392Z,2.75
2023-03-05T05:55:01.928Z,2.50
2023-03-05T05:57:28.649Z,3.03
2023-03-05T05:59:55.205Z,3.28
2023-03-05T06:02:22.232Z,2.80
2023-03-05T06:04:49.188Z,2.53
2023-03-05T06:07:16.043Z,3.25
2023-03-05T06:09:43.683Z,2.92
2023-03-05T06:12:11.204Z,2.30
2023-03-05T06:14:37.787Z,3.00
2023-03-05T06:17:04.520Z,2.28
2023-03-05T06:19:32.630Z,2.80
2023-03-05T06:21:59.142Z,3.25
2023-03-05T06:24:25.686Z,2.50
2023-03-05T06:26:52.056Z,2.38
2023-03-05T06:29:18.628Z,3.20
2023-03-05T06:31:45.373Z,2.63
2023-03-05T06:34:11.873Z,2.75
2023-03-05T06:36:39.508Z,2.25
2023-03-05T06:39:06.547Z,2.63
2023-03-05T06:41:33.251Z,2.38
2023-03-05T06:44:02.363Z,2.65
2023-03-05T06:46:33.967Z,2.33
2023-03-05T06:49:02.291Z,2.70
2023-03-05T06:51:31.600Z,2.35
2023-03-05T06:54:18.025Z,2.28
2023-03-05T06:56:46.501Z,2.40
2023-03-05T06:59:14.989Z,2.50
2023-03-05T07:01:42.673Z,2.42
2023-03-05T07:04:11.147Z,2.40
2023-03-05T07:06:42.107Z,2.28
2023-03-05T07:09:13.383Z,2.53
2023-03-05T07:11:39.769Z,2.33
2023-03-05T07:14:06.799Z,2.30
2023-03-05T07:16:34.408Z,2.17
2023-03-05T07:19:03.688Z,2.30
2023-03-05T07:21:34.035Z,2.03
2023-03-05T07:24:04.648Z,2.28
2023-03-05T07:26:33.713Z,2.03
2023-03-05T07:29:00.946Z,2.45
2023-03-05T07:31:31.128Z,2.17
2023-03-05T07:33:59.528Z,2.30
2023-03-05T07:36:27.084Z,3.00
2023-03-05T07:38:53.866Z,2.40
2023-03-05T07:41:21.951Z,2.15
2023-03-05T07:43:52.636Z,2.65
2023-03-05T07:46:21.595Z,3.13
2023-03-05T07:48:48.199Z,2.72
2023-03-05T07:51:18.308Z,3.30
2023-03-05T07:53:46.111Z,2.47
2023-03-05T07:56:13.144Z,2.25
2023-03-05T07:58:39.785Z,2.38
2023-03-05T08:01:13.953Z,2.35
2023-03-05T08:03:41.279Z,2.50
2023-03-05T08:06:08.379Z,2.85
2023-03-05T08:08:36.123Z,2.78
2023-03-05T08:11:09.959Z,3.10
2023-03-05T08:13:36.803Z,2.90
2023-03-05T08:16:08.932Z,2.83
2023-03-05T08:18:36.076Z,3.25
2023-03-05T08:21:03.382Z,2.90
2023-03-05T08:23:30.559Z,2.83
2023-03-05T08:25:57.299Z,3.13
2023-03-05T08:28:23.911Z,2.92
2023-03-05T08:30:50.672Z,3.33
2023-03-05T08:33:18.002Z,3.38
2023-03-05T08:35:45.179Z,3.58
2023-03-05T08:38:11.782Z,3.42
2023-03-05T08:40:38.254Z,3.33
2023-03-05T08:43:05.797Z,3.83
2023-03-05T08:45:32.291Z,3.70
2023-03-05T08:47:59.053Z,4.10
2023-03-05T08:50:25.953Z,3.50
2023-03-05T08:52:52.927Z,3.83
2023-03-05T08:55:19.327Z,3.25
2023-03-05T08:57:46.089Z,4.63
2023-03-05T09:00:13.798Z,3.88
2023-03-05T09:02:40.512Z,4.13
2023-03-05T09:05:07.566Z,3.78
2023-03-05T09:07:34.567Z,4.18
2023-03-05T09:10:00.992Z,4.45
2023-03-05T09:12:27.884Z,4.00
2023-03-05T09:14:55.363Z,3.42
2023-03-05T09:17:23.042Z,3.42
2023-03-05T09:19:50.289Z,2.80
2023-03-05T09:22:17.224Z,3.50
2023-03-05T09:24:44.046Z,2.47
2023-03-05T09:27:10.772Z,3.88
2023-03-05T09:29:37.725Z,3.28
2023-03-05T09:32:04.281Z,3.20
2023-03-05T09:34:31.042Z,3.55
2023-03-05T09:36:57.429Z,3.00
2023-03-05T09:39:24.217Z,3.92
2023-03-05T09:42:02.857Z,3.53
2023-03-05T09:44:35.432Z,3.45
2023-03-05T09:47:08.653Z,3.25
2023-03-05T09:49:45.405Z,3.78
2023-03-05T09:52:20.672Z,3.83
2023-03-05T09:57:24.327Z,3.67
2023-03-05T09:59:57.646Z,3.28
2023-03-05T10:02:35.334Z,3.35
2023-03-05T10:05:04.934Z,3.55
2023-03-05T10:07:36.494Z,4.30
2023-03-05T10:10:14.215Z,3.30
2023-03-05T10:12:52.893Z,3.70
2023-03-05T10:15:38.254Z,4.03
2023-03-05T10:18:09.491Z,3.88
2023-03-05T10:20:56.469Z,5.10
2023-03-05T10:23:36.267Z,4.45
2023-03-05T10:26:16.022Z,4.00
2023-03-05T10:29:11.789Z,4.10
2023-03-05T10:31:50.371Z,3.80
2023-03-05T10:34:33.998Z,3.60
2023-03-05T10:37:09.932Z,3.80
2023-03-05T10:39:56.963Z,3.30
2023-03-05T10:42:55.521Z,4.55
2023-03-05T10:45:28.588Z,3.53
2023-03-05T10:48:16.950Z,3.50
2023-03-05T10:50:48.891Z,4.70
2023-03-05T10:53:27.383Z,3.78
2023-03-05T10:55:57.810Z,3.45
2023-03-05T10:58:25.177Z,3.70
2023-03-05T11:01:22.624Z,3.97
2023-03-05T11:03:51.811Z,4.22
2023-03-05T11:06:42.705Z,3.47
2023-03-05T11:09:20.036Z,3.75
2023-03-05T11:12:21.569Z,4.63
2023-03-05T11:15:14.398Z,4.28
2023-03-05T11:17:45.229Z,4.53
2023-03-05T11:20:26.882Z,4.18
2023-03-05T11:23:05.371Z,4.13
2023-03-05T11:25:34.032Z,4.35
2023-03-05T11:28:03.606Z,4.35
2023-03-05T11:30:37.260Z,4.22
2023-03-05T11:33:11.719Z,4.20
2023-03-05T11:35:40.175Z,4.55
2023-03-05T11:38:16.980Z,4.22
2023-03-05T11:40:43.718Z,4.43
2023-03-05T11:43:17.493Z,4.30
2023-03-05T11:45:45.790Z,4.30
2023-03-05T11:48:18.403Z,4.00
2023-03-05T11:50:46.891Z,3.88
2023-03-05T11:53:20.662Z,4.68
2023-03-05T11:55:54.714Z,4.78
2023-03-05T11:58:43.530Z,4.15
2023-03-05T12:01:22.623Z,4.22
2023-03-05T12:03:51.583Z,4.38
2023-03-05T12:06:40.834Z,3.90
2023-03-05T12:09:20.255Z,3.58
2023-03-05T12:11:50.294Z,3.53
2023-03-05T12:14:32.034Z,4.60
2023-03-05T12:17:18.953Z,4.50
2023-03-05T12:19:58.262Z,4.35
2023-03-05T12:22:33.526Z,4.68
2023-03-05T12:25:27.184Z,5.32
2023-03-05T12:27:53.944Z,5.13
2023-03-05T12:30:35.810Z,6.68
2023-03-05T12:33:04.813Z,6.88
2023-03-05T12:35:39.739Z,5.72
2023-03-05T12:40:53.374Z,6.15
2023-03-05T12:43:32.889Z,6.35
2023-03-05T12:46:42.707Z,6.43
2023-03-05T12:49:18.115Z,6.95
2023-03-05T12:51:47.226Z,6.97
2023-03-05T12:54:29.837Z,7.78
2023-03-05T12:57:06.179Z,7.45
2023-03-05T12:59:42.530Z,6.90
2023-03-05T13:02:37.365Z,7.03
2023-03-05T13:05:27.471Z,7.18
2023-03-05T13:08:15.779Z,6.40
2023-03-05T13:10:43.749Z,7.30
2023-03-05T13:13:15.849Z,6.85
2023-03-05T13:15:47.078Z,7.78
2023-03-05T13:18:40.758Z,9.02
2023-03-05T13:21:14.410Z,7.38
2023-03-05T13:24:15.036Z,7.68
2023-03-05T13:26:41.486Z,7.47
2023-03-05T13:29:30.600Z,7.50
2023-03-05T13:32:31.243Z,8.00
2023-03-05T13:35:00.459Z,8.40
2023-03-05T13:37:37.891Z,8.55
2023-03-05T13:40:29.332Z,8.50
2023-03-05T13:43:09.790Z,8.18
2023-03-05T13:45:36.267Z,9.25
2023-03-05T13:48:06.944Z,9.93
2023-03-05T13:50:33.279Z,9.68
2023-03-05T13:53:20.615Z,8.68
2023-03-05T13:55:48.950Z,9.32
2023-03-05T13:58:47.404Z,9.10
2023-03-05T14:01:31.098Z,8.95
2023-03-05T14:04:16.617Z,9.23
2023-03-05T14:09:25.538Z,9.23
2023-03-05T14:12:00.103Z,9.23
2023-03-05T14:14:30.654Z,9.30
2023-03-05T14:17:25.871Z,10.30
2023-03-05T14:19:52.382Z,8.50
2023-03-05T14:22:38.885Z,8.60
2023-03-05T14:25:07.232Z,7.45
2023-03-05T14:27:36.287Z,7.65
2023-03-05T14:30:05.062Z,8.98
2023-03-05T14:32:34.708Z,7.90
2023-03-05T14:35:04.197Z,8.75
2023-03-05T14:37:45.267Z,7.78
2023-03-05T14:40:12.142Z,8.23
2023-03-05T14:42:54.836Z,8.05
2023-03-05T14:45:22.820Z,7.95
2023-03-05T14:47:54.288Z,8.40
2023-03-05T14:50:27.658Z,7.78
2023-03-05T14:53:01.304Z,7.75
2023-03-05T14:55:31.693Z,8.02
2023-03-05T14:58:04.658Z,8.48
2023-03-05T15:00:31.772Z,8.70
2023-03-05T15:02:58.835Z,8.18
2023-03-05T15:05:25.532Z,8.25
2023-03-05T15:07:52.343Z,8.00
2023-03-05T15:10:21.620Z,8.63
2023-03-05T15:12:50.284Z,8.18
2023-03-05T15:15:18.372Z,7.15
2023-03-05T15:17:52.068Z,7.90
2023-03-05T15:20:25.787Z,7.50
2023-03-05T15:22:53.321Z,7.40
2023-03-05T15:25:21.432Z,7.70
2023-03-05T15:27:48.983Z,7.57
2023-03-05T15:30:28.281Z,7.90
2023-03-05T15:32:57.044Z,7.93
2023-03-05T15:35:25.184Z,8.02
2023-03-05T15:37:53.425Z,7.30
2023-03-05T15:40:21.598Z,8.88
2023-03-05T15:42:48.416Z,8.15
2023-03-05T15:45:15.552Z,7.95
2023-03-05T15:47:42.086Z,7.38
2023-03-05T15:50:09.539Z,7.65
2023-03-05T15:52:35.992Z,7.35
2023-03-05T15:55:02.936Z,7.40
2023-03-05T15:57:29.659Z,7.18
2023-03-05T15:59:56.220Z,7.32
2023-03-05T16:02:25.146Z,7.18
2023-03-05T16:04:51.529Z,6.93
2023-03-05T16:07:18.237Z,6.72
2023-03-05T16:09:49.181Z,6.65
2023-03-05T16:12:20.114Z,7.07
2023-03-05T16:14:47.448Z,6.40
2023-03-05T16:17:15.601Z,5.45
2023-03-05T16:19:46.667Z,6.63
2023-03-05T16:22:13.073Z,6.80
2023-03-05T16:24:39.797Z,6.25
2023-03-05T16:27:06.284Z,6.18
2023-03-05T16:29:33.968Z,6.72
2023-03-05T16:32:02.934Z,6.65
2023-03-05T16:34:30.329Z,5.80
2023-03-05T16:36:59.086Z,6.32
2023-03-05T16:39:25.521Z,6.53
2023-03-05T16:41:52.582Z,7.28
2023-03-05T16:44:19.725Z,6.95
2023-03-05T16:46:50.343Z,6.38
2023-03-05T16:49:16.889Z,6.90
2023-03-05T16:51:43.293Z,6.88
2023-03-05T16:54:10.291Z,6.28
2023-03-05T16:56:37.163Z,6.88
2023-03-05T16:59:04.212Z,7.07
2023-03-05T17:01:30.680Z,5.93
2023-03-05T17:03:59.098Z,6.22
2023-03-05T17:06:28.986Z,4.78
2023-03-05T17:08:55.882Z,4.75
2023-03-05T17:11:23.998Z,5.40
2023-03-05T17:13:50.371Z,5.93
2023-03-05T17:16:19.693Z,5.45
2023-03-05T17:18:46.488Z,5.53
2023-03-05T17:21:13.962Z,6.13
2023-03-05T17:23:41.001Z,6.40
2023-03-05T17:26:13.560Z,5.53
2023-03-05T17:28:41.228Z,5.28
2023-03-05T17:31:07.855Z,5.63
2023-03-05T17:33:36.069Z,5.82
2023-03-05T17:36:03.783Z,7.63
2023-03-05T17:38:30.883Z,7.55
2023-03-05T17:40:57.405Z,8.63
2023-03-05T17:43:24.205Z,8.13
2023-03-05T17:45:50.765Z,7.25
2023-03-05T17:48:17.337Z,6.10
2023-03-05T17:50:45.373Z,5.30
2023-03-05T17:53:12.396Z,5.60
2023-03-05T17:55:39.647Z,6.00
2023-03-05T17:58:06.354Z,6.50
2023-03-05T18:00:33.143Z,6.18
2023-03-05T18:03:00.131Z,5.72
2023-03-05T18:05:27.951Z,5.95
2023-03-05T18:07:55.952Z,5.97
2023-03-05T18:10:24.883Z,5.70
2023-03-05T18:12:52.067Z,6.93
2023-03-05T18:15:21.006Z,6.38
2023-03-05T18:17:47.508Z,6.15
2023-03-05T18:20:34.784Z,5.90
2023-03-05T18:23:02.269Z,5.78
2023-03-05T18:25:31.372Z,6.68
2023-03-05T18:28:09.764Z,6.38
2023-03-05T18:30:37.728Z,8.30
2023-03-05T18:33:05.851Z,10.00
2023-03-05T18:35:33.502Z,9.57
2023-03-05T18:38:00.392Z,8.15
2023-03-05T18:40:29.781Z,8.50
2023-03-05T18:42:59.733Z,9.00
2023-03-05T18:45:26.273Z,9.70
2023-03-05T18:47:54.197Z,8.93
2023-03-05T18:50:23.708Z,9.13
2023-03-05T18:52:50.834Z,8.40
2023-03-05T18:55:19.988Z,9.13
2023-03-05T18:57:46.924Z,9.00
2023-03-05T19:00:15.805Z,9.82
2023-03-05T19:02:42.296Z,9.23
2023-03-05T19:05:09.465Z,9.68
2023-03-05T19:07:37.909Z,9.13
2023-03-05T19:10:09.783Z,9.25
2023-03-05T19:12:45.414Z,8.68
2023-03-05T19:15:13.659Z,9.57
2023-03-05T19:17:40.209Z,9.60
2023-03-05T19:20:07.767Z,9.52
2023-03-05T19:22:34.792Z,9.68
2023-03-05T19:25:01.714Z,10.00
2023-03-05T19:27:29.010Z,8.88
2023-03-05T19:29:55.649Z,10.23
2023-03-05T19:32:23.506Z,9.55
2023-03-05T19:34:50.614Z,9.48
2023-03-05T19:37:18.106Z,10.07
2023-03-05T19:39:44.668Z,9.30
2023-03-05T19:42:12.266Z,9.50
2023-03-05T19:44:38.988Z,9.07
2023-03-05T19:47:05.935Z,9.15
2023-03-05T19:49:32.742Z,9.32
2023-03-05T19:51:59.272Z,9.52
2023-03-05T19:54:26.038Z,8.85
2023-03-05T19:56:54.860Z,8.80
2023-03-05T19:59:22.172Z,8.52
2023-03-05T20:01:49.376Z,9.23
2023-03-05T20:04:18.947Z,9.23
2023-03-05T20:06:45.864Z,9.23
2023-03-05T20:09:13.091Z,9.07
2023-03-05T20:11:40.522Z,8.98
2023-03-05T20:14:07.861Z,9.98
2023-03-05T20:16:40.131Z,9.93
2023-03-05T20:19:08.177Z,9.57
2023-03-05T20:21:38.758Z,9.13
2023-03-05T20:24:09.951Z,9.18
2023-03-05T20:26:40.402Z,9.35
2023-03-05T20:29:07.294Z,11.13
2023-03-05T20:31:36.815Z,9.93
2023-03-05T20:34:09.068Z,9.52
2023-03-05T20:36:35.672Z,9.70
2023-03-05T20:39:03.546Z,10.50
2023-03-05T20:41:30.401Z,10.60
2023-03-05T20:43:57.288Z,10.35
2023-03-05T20:46:26.778Z,10.55
2023-03-05T20:48:57.498Z,9.50
2023-03-05T20:51:27.289Z,10.45
2023-03-05T20:53:58.510Z,10.30
2023-03-05T20:56:27.799Z,9.75
2023-03-05T20:58:58.352Z,9.65
2023-03-05T21:01:25.790Z,10.07
2023-03-05T21:03:56.998Z,9.30
2023-03-05T21:06:24.356Z,9.95
2023-03-05T21:08:50.957Z,9.43
2023-03-05T21:11:17.374Z,9.95
2023-03-05T21:13:44.288Z,9.05
2023-03-05T21:16:15.472Z,9.93
2023-03-05T21:18:42.016Z,9.65
2023-03-05T21:21:08.528Z,10.43
2023-03-05T21:23:35.433Z,10.02
2023-03-05T21:26:04.401Z,10.82
2023-03-05T21:28:31.773Z,8.65
2023-03-05T21:30:58.909Z,9.90
2023-03-05T21:33:28.124Z,9.60
2023-03-05T21:35:57.861Z,9.68
2023-03-05T21:38:25.675Z,9.88
2023-03-05T21:40:53.767Z,9.52
2023-03-05T21:43:23.070Z,9.63
2023-03-05T21:45:54.586Z,9.57
2023-03-05T21:48:22.424Z,8.60
2023-03-05T21:50:50.049Z,9.68
2023-03-05T21:53:18.502Z,9.65
2023-03-05T21:56:03.191Z,9.00
2023-03-05T21:58:31.995Z,8.57
2023-03-05T22:00:59.281Z,8.60
2023-03-05T22:03:27.055Z,10.27
2023-03-05T22:05:54.284Z,9.50
2023-03-05T22:08:22.076Z,10.13
2023-03-05T22:10:49.186Z,10.85
2023-03-05T22:13:17.698Z,11.32
2023-03-05T22:15:49.633Z,11.40
2023-03-05T22:18:19.332Z,10.45
2023-03-05T22:20:46.560Z,10.40
2023-03-05T22:23:13.054Z,11.07
2023-03-05T22:25:39.583Z,10.57
2023-03-05T22:28:06.499Z,11.35
2023-03-05T22:30:33.278Z,10.65
2023-03-05T22:33:01.782Z,10.13
2023-03-05T22:35:28.949Z,10.13
2023-03-05T22:37:55.766Z,11.48
2023-03-05T22:40:23.268Z,11.27
2023-03-05T22:42:49.822Z,11.88
2023-03-05T22:45:18.271Z,11.52
2023-03-05T22:47:51.328Z,11.07
2023-03-05T22:50:18.065Z,12.38
2023-03-05T22:52:44.554Z,10.48
2023-03-05T22:55:12.932Z,11.70
2023-03-05T22:57:39.732Z,10.93
2023-03-05T23:00:09.181Z,12.20
2023-03-05T23:02:35.829Z,11.55
2023-03-05T23:05:03.692Z,11.13
2023-03-05T23:07:33.525Z,11.60
2023-03-05T23:10:10.623Z,10.65
2023-03-05T23:12:41.055Z,11.13
2023-03-05T23:15:10.754Z,11.32
2023-03-05T23:17:37.806Z,11.43
2023-03-05T23:20:08.332Z,11.70
2023-03-05T23:22:38.353Z,12.60
2023-03-05T23:25:05.675Z,11.35
2023-03-05T23:27:32.213Z,11.13
2023-03-05T23:30:25.410Z,11.93
2023-03-05T23:32:54.196Z,11.88
2023-03-05T23:35:24.990Z,11.80
2023-03-05T23:37:53.299Z,11.90
2023-03-05T23:40:22.523Z,12.40
2023-03-05T23:42:49.823Z,11.68
2023-03-05T23:45:18.900Z,12.07
2023-03-05T23:47:46.043Z,11.98
2023-03-05T23:50:18.901Z,13.02
2023-03-05T23:52:46.219Z,13.15
2023-03-05T23:55:25.093Z,11.65
2023-03-05T23:57:52.169Z,11.88
